createdAt,value
2022-12-15T00:01:43.470Z,4.18
2022-12-15T00:04:29.363Z,4.05
2022-12-15T00:07:14.915Z,3.88
2022-12-15T00:10:00.637Z,4.20
2022-12-15T00:12:46.146Z,4.68
2022-12-15T00:15:31.626Z,4.80
2022-12-15T00:18:16.890Z,4.20
2022-12-15T00:21:02.980Z,3.80
2022-12-15T00:23:48.336Z,4.85
2022-12-15T00:26:33.827Z,4.40
2022-12-15T00:29:19.290Z,4.25
2022-12-15T00:32:04.636Z,3.60
2022-12-15T00:34:50.044Z,3.45
2022-12-15T00:37:35.617Z,5.32
2022-12-15T00:40:04.773Z,4.97
2022-12-15T00:42:31.428Z,5.00
2022-12-15T00:44:59.023Z,4.70
2022-12-15T00:48:25.427Z,5.80
2022-12-15T00:51:50.463Z,4.60
2022-12-15T00:55:15.428Z,4.57
2022-12-15T01:01:53.280Z,4.53
2022-12-15T01:04:38.730Z,4.95
2022-12-15T01:07:23.881Z,5.40
2022-12-15T01:10:09.484Z,5.15
2022-12-15T01:12:54.860Z,5.22
2022-12-15T01:15:40.305Z,5.25
2022-12-15T01:18:25.708Z,4.93
2022-12-15T01:20:57.544Z,5.35
2022-12-15T01:23:24.529Z,5.65
2022-12-15T01:25:55.215Z,4.82
2022-12-15T01:28:22.463Z,4.50
2022-12-15T01:30:49.393Z,4.38
2022-12-15T01:33:17.279Z,4.85
2022-12-15T01:35:44.232Z,4.70
2022-12-15T01:38:11.558Z,4.50
2022-12-15T01:40:47.619Z,4.30
2022-12-15T01:43:19.141Z,4.90
2022-12-15T01:45:49.102Z,4.65
2022-12-15T01:48:23.439Z,5.35
2022-12-15T01:51:12.339Z,5.68
2022-12-15T01:54:09.900Z,5.13
2022-12-15T01:56:50.735Z,4.80
2022-12-15T01:59:24.480Z,5.78
2022-12-15T02:01:51.654Z,4.85
2022-12-15T02:04:21.692Z,4.07
2022-12-15T02:06:48.874Z,4.32
2022-12-15T02:09:16.182Z,3.70
2022-12-15T02:12:21.091Z,4.13
2022-12-15T02:15:09.803Z,5.20
2022-12-15T02:17:41.183Z,4.90
2022-12-15T02:20:26.812Z,4.80
2022-12-15T02:23:28.414Z,4.72
2022-12-15T02:26:04.424Z,4.90
2022-12-15T02:28:42.939Z,5.25
2022-12-15T02:31:37.054Z,5.47
2022-12-15T02:34:11.825Z,4.85
2022-12-15T02:36:47.913Z,5.10
2022-12-15T02:39:15.016Z,5.53
2022-12-15T02:41:44.999Z,4.35
2022-12-15T02:44:31.824Z,4.25
2022-12-15T02:47:13.659Z,4.20
2022-12-15T02:49:46.222Z,4.28
2022-12-15T02:52:32.549Z,3.63
2022-12-15T02:55:11.416Z,4.25
2022-12-15T02:58:03.245Z,3.72
2022-12-15T03:00:35.259Z,3.80
2022-12-15T03:03:02.131Z,4.40
2022-12-15T03:05:32.117Z,3.88
2022-12-15T03:07:58.944Z,4.10
2022-12-15T03:10:26.397Z,3.90
2022-12-15T03:12:54.593Z,3.65
2022-12-15T03:15:21.875Z,3.50
2022-12-15T03:17:48.719Z,4.68
2022-12-15T03:20:15.924Z,3.33
2022-12-15T03:22:42.747Z,3.90
2022-12-15T03:25:09.545Z,3.58
2022-12-15T03:27:36.223Z,4.35
2022-12-15T03:30:03.433Z,4.05
2022-12-15T03:32:30.332Z,4.13
2022-12-15T03:34:56.928Z,3.47
2022-12-15T03:37:23.928Z,3.72
2022-12-15T03:39:50.579Z,4.15
2022-12-15T03:42:37.355Z,4.18
2022-12-15T03:45:04.706Z,4.75
2022-12-15T03:47:32.156Z,4.80
2022-12-15T03:49:59.023Z,3.55
2022-12-15T03:52:25.731Z,3.63
2022-12-15T03:55:52.359Z,4.57
2022-12-15T03:59:18.774Z,3.92
2022-12-15T04:05:38.412Z,3.63
2022-12-15T04:08:05.603Z,3.58
2022-12-15T04:10:34.911Z,3.53
2022-12-15T04:13:07.630Z,3.92
2022-12-15T04:15:35.326Z,3.35
2022-12-15T04:18:03.825Z,3.78
2022-12-15T04:20:31.068Z,3.47
2022-12-15T04:22:57.736Z,4.00
2022-12-15T04:25:44.834Z,4.05
2022-12-15T04:28:31.238Z,3.95
2022-12-15T04:31:28.919Z,4.22
2022-12-15T04:34:19.928Z,4.03
2022-12-15T04:37:09.207Z,3.72
2022-12-15T04:39:56.863Z,3.92
2022-12-15T04:42:42.661Z,3.85
2022-12-15T04:45:29.445Z,2.95
2022-12-15T04:48:14.978Z,4.57
2022-12-15T04:51:00.043Z,3.60
2022-12-15T04:53:45.540Z,4.97
2022-12-15T04:56:32.234Z,3.47
2022-12-15T04:59:18.400Z,3.72
2022-12-15T05:02:03.927Z,3.35
2022-12-15T05:04:49.696Z,3.42
2022-12-15T05:07:35.497Z,3.35
2022-12-15T05:10:21.550Z,3.35
2022-12-15T05:13:06.732Z,2.95
2022-12-15T05:15:52.913Z,3.28
2022-12-15T05:18:39.240Z,3.42
2022-12-15T05:21:25.643Z,3.65
2022-12-15T05:24:11.067Z,3.78
2022-12-15T05:26:56.819Z,3.63
2022-12-15T05:29:42.350Z,4.10
2022-12-15T05:32:09.336Z,3.08
2022-12-15T05:34:37.433Z,3.60
2022-12-15T05:37:06.823Z,3.67
2022-12-15T05:39:33.902Z,3.10
2022-12-15T05:42:00.692Z,3.25
2022-12-15T05:44:28.951Z,3.75
2022-12-15T05:46:55.737Z,3.72
2022-12-15T05:49:23.411Z,3.88
2022-12-15T05:51:50.418Z,3.00
2022-12-15T05:54:19.600Z,3.50
2022-12-15T05:56:47.123Z,3.78
2022-12-15T05:59:17.166Z,3.03
2022-12-15T06:01:44.263Z,3.03
2022-12-15T06:04:12.954Z,3.28
2022-12-15T06:06:40.661Z,3.28
2022-12-15T06:09:07.557Z,2.70
2022-12-15T06:11:34.315Z,3.05
2022-12-15T06:14:00.981Z,3.47
2022-12-15T06:16:28.366Z,3.10
2022-12-15T06:18:58.602Z,2.40
2022-12-15T06:21:28.635Z,2.67
2022-12-15T06:23:56.750Z,2.53
2022-12-15T06:26:26.551Z,3.35
2022-12-15T06:28:56.277Z,2.80
2022-12-15T06:31:25.700Z,2.97
2022-12-15T06:34:01.051Z,2.88
2022-12-15T06:36:29.357Z,2.75
2022-12-15T06:38:59.466Z,2.90
2022-12-15T06:41:26.802Z,2.47
2022-12-15T06:43:57.932Z,2.95
2022-12-15T06:46:26.110Z,2.95
2022-12-15T06:48:53.322Z,3.15
2022-12-15T06:51:20.736Z,3.60
2022-12-15T06:53:54.097Z,2.88
2022-12-15T06:56:34.677Z,2.85
2022-12-15T06:59:03.752Z,2.70
2022-12-15T07:01:31.487Z,3.65
2022-12-15T07:04:03.354Z,3.30
2022-12-15T07:06:36.750Z,3.25
2022-12-15T07:09:05.526Z,2.53
2022-12-15T07:11:32.153Z,3.03
2022-12-15T07:13:58.915Z,3.38
2022-12-15T07:16:25.840Z,3.08
2022-12-15T07:18:52.631Z,2.72
2022-12-15T07:21:19.359Z,3.10
2022-12-15T07:23:55.825Z,3.53
2022-12-15T07:26:23.707Z,2.70
2022-12-15T07:28:50.701Z,3.58
2022-12-15T07:31:17.988Z,2.72
2022-12-15T07:33:45.057Z,2.88
2022-12-15T07:36:12.330Z,3.05
2022-12-15T07:38:39.278Z,3.58
2022-12-15T07:41:08.360Z,3.10
2022-12-15T07:43:36.426Z,3.15
2022-12-15T07:46:05.148Z,3.50
2022-12-15T07:48:32.953Z,2.95
2022-12-15T07:51:08.478Z,4.82
2022-12-15T07:53:38.124Z,2.83
2022-12-15T07:56:08.439Z,2.70
2022-12-15T07:58:36.771Z,5.68
2022-12-15T08:01:06.887Z,3.40
2022-12-15T08:03:34.450Z,4.40
2022-12-15T08:06:13.700Z,4.97
2022-12-15T08:08:40.681Z,4.30
2022-12-15T08:11:09.143Z,3.30
2022-12-15T08:16:23.746Z,2.70
2022-12-15T08:18:50.565Z,2.90
2022-12-15T08:21:17.399Z,2.85
2022-12-15T08:23:44.693Z,3.00
2022-12-15T08:26:14.532Z,2.90
2022-12-15T08:28:41.992Z,2.70
2022-12-15T08:31:11.147Z,2.63
2022-12-15T08:33:38.353Z,2.03
2022-12-15T08:36:08.427Z,2.92
2022-12-15T08:38:36.868Z,3.28
2022-12-15T08:41:11.957Z,3.20
2022-12-15T08:43:45.756Z,2.97
2022-12-15T08:46:16.060Z,3.00
2022-12-15T08:48:43.155Z,3.40
2022-12-15T08:51:10.323Z,2.60
2022-12-15T08:53:37.076Z,2.65
2022-12-15T08:56:12.453Z,3.13
2022-12-15T08:58:39.917Z,2.72
2022-12-15T09:01:10.871Z,2.67
2022-12-15T09:03:37.764Z,3.08
2022-12-15T09:06:13.337Z,3.00
2022-12-15T09:08:40.451Z,2.55
2022-12-15T09:11:07.199Z,2.63
2022-12-15T09:13:35.275Z,2.83
2022-12-15T09:16:10.277Z,3.00
2022-12-15T09:18:38.016Z,3.47
2022-12-15T09:21:06.698Z,3.00
2022-12-15T09:23:35.312Z,3.00
2022-12-15T09:26:04.895Z,3.45
2022-12-15T09:28:35.128Z,2.85
2022-12-15T09:31:10.641Z,2.70
2022-12-15T09:33:37.960Z,2.70
2022-12-15T09:36:05.361Z,2.97
2022-12-15T09:38:34.840Z,3.72
2022-12-15T09:41:29.974Z,3.40
2022-12-15T09:44:04.261Z,3.33
2022-12-15T09:46:49.774Z,2.97
2022-12-15T09:49:35.269Z,3.30
2022-12-15T09:52:11.053Z,3.00
2022-12-15T09:54:38.940Z,4.10
2022-12-15T09:57:14.818Z,4.20
2022-12-15T09:59:55.868Z,3.92
2022-12-15T10:02:37.881Z,3.30
2022-12-15T10:05:22.161Z,3.38
2022-12-15T10:07:50.728Z,2.97
2022-12-15T10:10:41.911Z,2.78
2022-12-15T10:13:30.493Z,3.22
2022-12-15T10:16:14.710Z,2.67
2022-12-15T10:18:57.565Z,3.40
2022-12-15T10:21:28.404Z,3.60
2022-12-15T10:24:04.098Z,3.72
2022-12-15T10:26:35.378Z,3.40
2022-12-15T10:29:39.596Z,3.40
2022-12-15T10:32:20.157Z,3.80
2022-12-15T10:34:47.046Z,4.15
2022-12-15T10:37:18.876Z,3.50
2022-12-15T10:39:50.284Z,3.35
2022-12-15T10:42:25.758Z,3.83
2022-12-15T10:44:56.232Z,4.10
2022-12-15T10:47:26.259Z,4.25
2022-12-15T10:49:58.376Z,4.28
2022-12-15T10:52:51.956Z,4.47
2022-12-15T10:58:03.153Z,3.35
2022-12-15T11:00:32.041Z,3.95
2022-12-15T11:02:59.964Z,4.07
2022-12-15T11:05:27.651Z,3.20
2022-12-15T11:08:17.668Z,3.50
2022-12-15T11:11:13.839Z,3.35
2022-12-15T11:13:42.023Z,3.17
2022-12-15T11:16:19.806Z,3.75
2022-12-15T11:18:52.666Z,3.80
2022-12-15T11:21:22.522Z,3.80
2022-12-15T11:24:08.072Z,3.13
2022-12-15T11:26:50.808Z,2.60
2022-12-15T11:29:23.783Z,2.50
2022-12-15T11:31:55.328Z,3.33
2022-12-15T11:34:26.256Z,3.08
2022-12-15T11:37:13.590Z,3.05
2022-12-15T11:39:52.348Z,3.60
2022-12-15T11:42:39.282Z,5.32
2022-12-15T11:45:57.078Z,3.53
2022-12-15T11:49:02.864Z,3.70
2022-12-15T11:51:58.283Z,3.20
2022-12-15T11:54:45.485Z,3.15
2022-12-15T11:57:15.275Z,3.40
2022-12-15T11:59:48.006Z,3.60
2022-12-15T12:02:42.009Z,4.32
2022-12-15T12:05:30.023Z,3.72
2022-12-15T12:08:24.565Z,3.72
2022-12-15T12:11:09.862Z,4.57
2022-12-15T12:14:11.912Z,4.93
2022-12-15T12:16:48.639Z,4.13
2022-12-15T12:19:41.970Z,4.32
2022-12-15T12:22:34.780Z,3.60
2022-12-15T12:25:05.271Z,3.70
2022-12-15T12:27:45.040Z,3.63
2022-12-15T12:30:18.612Z,3.53
2022-12-15T12:32:56.587Z,3.42
2022-12-15T12:35:38.308Z,3.88
2022-12-15T12:38:07.846Z,4.22
2022-12-15T12:40:41.798Z,4.68
2022-12-15T12:43:14.063Z,3.90
2022-12-15T12:45:57.439Z,4.32
2022-12-15T12:48:56.312Z,4.65
2022-12-15T12:51:25.504Z,3.25
2022-12-15T12:53:52.677Z,3.97
2022-12-15T12:56:45.480Z,3.92
2022-12-15T12:59:50.370Z,3.25
2022-12-15T13:02:26.781Z,4.30
2022-12-15T13:05:04.005Z,3.60
2022-12-15T13:07:42.132Z,3.80
2022-12-15T13:10:08.789Z,3.65
2022-12-15T13:12:54.725Z,4.13
2022-12-15T13:15:27.763Z,3.92
2022-12-15T13:18:14.223Z,3.67
2022-12-15T13:20:42.446Z,3.25
2022-12-15T13:23:37.453Z,3.42
2022-12-15T13:26:04.261Z,3.15
2022-12-15T13:28:39.192Z,3.45
2022-12-15T13:31:18.907Z,4.05
2022-12-15T13:33:52.812Z,3.80
2022-12-15T13:36:38.109Z,3.72
2022-12-15T13:39:27.960Z,3.47
2022-12-15T13:44:57.358Z,2.97
2022-12-15T13:47:28.191Z,3.38
2022-12-15T13:50:19.754Z,2.92
2022-12-15T13:53:17.923Z,3.20
2022-12-15T13:55:46.380Z,2.83
2022-12-15T13:58:20.409Z,3.30
2022-12-15T14:00:54.173Z,3.13
2022-12-15T14:03:21.469Z,4.15
2022-12-15T14:05:51.191Z,2.67
2022-12-15T14:08:19.664Z,3.38
2022-12-15T14:10:55.366Z,3.40
2022-12-15T14:13:26.701Z,4.55
2022-12-15T14:16:00.187Z,4.78
2022-12-15T14:18:34.350Z,4.78
2022-12-15T14:21:05.396Z,4.22
2022-12-15T14:24:11.292Z,3.88
2022-12-15T14:26:32.067Z,4.35
2022-12-15T14:29:05.310Z,4.38
2022-12-15T14:31:32.494Z,4.50
2022-12-15T14:34:19.275Z,4.32
2022-12-15T14:36:46.497Z,4.00
2022-12-15T14:39:36.413Z,4.25
2022-12-15T14:42:04.406Z,4.60
2022-12-15T14:44:48.087Z,4.35
2022-12-15T14:47:27.289Z,4.88
2022-12-15T14:49:56.113Z,4.18
2022-12-15T14:52:27.270Z,4.47
2022-12-15T14:54:57.631Z,4.80
2022-12-15T14:57:40.844Z,4.90
2022-12-15T15:00:26.344Z,4.80
2022-12-15T15:03:18.147Z,5.78
2022-12-15T15:05:48.901Z,5.25
2022-12-15T15:08:30.062Z,5.38
2022-12-15T15:11:18.902Z,5.68
2022-12-15T15:13:46.119Z,6.15
2022-12-15T15:16:19.043Z,5.18
2022-12-15T15:18:51.705Z,6.47
2022-12-15T15:21:22.381Z,6.10
2022-12-15T15:24:25.644Z,5.22
2022-12-15T15:26:53.552Z,4.95
2022-12-15T15:29:41.180Z,5.03
2022-12-15T15:32:22.549Z,6.22
2022-12-15T15:34:49.652Z,5.47
2022-12-15T15:37:26.245Z,5.47
2022-12-15T15:39:56.042Z,5.82
2022-12-15T15:42:26.620Z,7.00
2022-12-15T15:44:58.117Z,6.55
2022-12-15T15:47:25.817Z,6.05
2022-12-15T15:49:55.051Z,6.30
2022-12-15T15:52:22.649Z,5.63
2022-12-15T15:54:49.747Z,6.53
2022-12-15T15:57:17.972Z,7.20
2022-12-15T15:59:45.600Z,7.13
2022-12-15T16:02:14.277Z,6.75
2022-12-15T16:04:42.668Z,5.55
2022-12-15T16:07:29.423Z,6.25
2022-12-15T16:09:56.850Z,5.30
2022-12-15T16:12:36.229Z,29.88
2022-12-15T16:15:02.871Z,15.88
2022-12-15T16:17:29.586Z,11.93
2022-12-15T16:19:56.529Z,10.00
2022-12-15T16:22:23.497Z,12.75
2022-12-15T16:24:50.910Z,7.97
2022-12-15T16:27:17.815Z,14.77
2022-12-15T16:29:44.632Z,9.13
2022-12-15T16:32:12.565Z,6.55
2022-12-15T16:34:39.435Z,6.70
2022-12-15T16:37:08.804Z,7.78
2022-12-15T16:39:35.613Z,6.60
2022-12-15T16:42:02.914Z,5.93
2022-12-15T16:44:29.903Z,5.55
2022-12-15T16:46:57.613Z,7.80
2022-12-15T16:49:25.072Z,5.60
2022-12-15T16:51:53.734Z,6.40
2022-12-15T16:54:25.357Z,6.97
2022-12-15T16:56:57.067Z,7.45
2022-12-15T16:59:34.878Z,8.05
2022-12-15T17:02:16.189Z,6.53
2022-12-15T17:04:43.052Z,8.93
2022-12-15T17:07:19.563Z,9.50
2022-12-15T17:09:47.545Z,8.38
2022-12-15T17:12:17.613Z,7.93
2022-12-15T17:14:45.065Z,6.40
2022-12-15T17:17:16.627Z,8.45
2022-12-15T17:19:57.853Z,7.07
2022-12-15T17:22:26.804Z,8.63
2022-12-15T17:24:53.537Z,8.82
2022-12-15T17:27:28.292Z,11.15
2022-12-15T17:30:00.629Z,12.98
2022-12-15T17:32:27.260Z,14.43
2022-12-15T17:34:54.069Z,12.13
2022-12-15T17:37:20.992Z,9.50
2022-12-15T17:39:51.525Z,9.85
2022-12-15T17:42:20.522Z,10.57
2022-12-15T17:44:48.857Z,9.98
2022-12-15T17:47:16.807Z,10.13
2022-12-15T17:49:44.223Z,10.73
2022-12-15T17:52:28.443Z,10.02
2022-12-15T17:54:56.072Z,10.30
2022-12-15T17:57:22.900Z,10.30
2022-12-15T17:59:50.072Z,12.02
2022-12-15T18:02:17.296Z,11.00
2022-12-15T18:04:44.374Z,11.18
2022-12-15T18:07:22.971Z,10.60
2022-12-15T18:09:53.244Z,11.20
2022-12-15T18:12:25.638Z,12.05
2022-12-15T18:14:53.085Z,11.52
2022-12-15T18:17:20.268Z,12.35
2022-12-15T18:19:47.000Z,12.65
2022-12-15T18:22:22.269Z,11.85
2022-12-15T18:24:50.404Z,12.60
2022-12-15T18:27:26.643Z,14.18
2022-12-15T18:29:54.235Z,13.75
2022-12-15T18:32:24.404Z,14.93
2022-12-15T18:34:51.661Z,12.30
2022-12-15T18:37:21.391Z,14.23
2022-12-15T18:39:48.441Z,16.02
2022-12-15T18:42:17.727Z,15.88
2022-12-15T18:44:47.730Z,16.00
2022-12-15T18:47:20.077Z,19.50
2022-12-15T18:49:47.219Z,21.55
2022-12-15T18:54:52.681Z,15.88
2022-12-15T18:57:40.867Z,17.63
2022-12-15T19:00:13.666Z,17.20
2022-12-15T19:02:41.632Z,15.02
2022-12-15T19:05:27.392Z,15.95
2022-12-15T19:07:57.344Z,15.55
2022-12-15T19:10:27.002Z,15.02
2022-12-15T19:12:58.364Z,16.08
2022-12-15T19:15:25.624Z,16.58
2022-12-15T19:18:11.055Z,16.65
2022-12-15T19:20:56.914Z,18.15
2022-12-15T19:23:23.656Z,16.25
2022-12-15T19:25:52.309Z,15.02
2022-12-15T19:28:22.421Z,14.18
2022-12-15T19:30:50.352Z,12.73
2022-12-15T19:33:18.241Z,11.38
2022-12-15T19:35:50.536Z,10.88
2022-12-15T19:38:22.390Z,12.27
2022-12-15T19:40:53.348Z,12.93
2022-12-15T19:43:21.498Z,15.77
2022-12-15T19:45:49.738Z,12.70
2022-12-15T19:48:22.938Z,14.13
2022-12-15T19:50:52.476Z,17.35
2022-12-15T19:53:26.239Z,15.77
2022-12-15T19:55:55.703Z,12.95
2022-12-15T19:58:32.167Z,11.48
2022-12-15T20:01:12.687Z,12.63
2022-12-15T20:03:39.799Z,12.77
2022-12-15T20:06:14.337Z,15.15
2022-12-15T20:08:43.537Z,14.65
2022-12-15T20:11:18.903Z,15.00
2022-12-15T20:13:46.934Z,13.85
2022-12-15T20:16:17.532Z,14.20
2022-12-15T20:18:49.452Z,17.17
2022-12-15T20:22:16.720Z,16.42
2022-12-15T20:24:44.731Z,17.92
2022-12-15T20:27:17.256Z,18.17
2022-12-15T20:29:44.982Z,17.85
2022-12-15T20:32:20.869Z,15.95
2022-12-15T20:34:48.074Z,16.33
2022-12-15T20:37:18.709Z,15.40
2022-12-15T20:39:45.443Z,16.48
2022-12-15T20:42:18.975Z,15.63
2022-12-15T20:44:45.721Z,16.40
2022-12-15T20:47:22.379Z,13.52
2022-12-15T20:49:50.524Z,13.75
2022-12-15T20:52:25.676Z,14.13
2022-12-15T20:54:54.159Z,15.40
2022-12-15T20:57:20.835Z,17.83
2022-12-15T20:59:47.672Z,15.98
2022-12-15T21:02:19.740Z,14.95
2022-12-15T21:04:47.158Z,15.88
2022-12-15T21:07:14.236Z,15.82
2022-12-15T21:09:40.972Z,15.13
2022-12-15T21:12:27.939Z,14.45
2022-12-15T21:14:55.161Z,15.45
2022-12-15T21:17:24.210Z,16.60
2022-12-15T21:19:51.021Z,15.30
2022-12-15T21:22:25.029Z,15.32
2022-12-15T21:24:54.223Z,14.70
2022-12-15T21:27:22.011Z,15.90
2022-12-15T21:29:52.714Z,16.77
2022-12-15T21:32:20.152Z,15.05
2022-12-15T21:34:46.864Z,16.58
2022-12-15T21:37:44.602Z,16.52
2022-12-15T21:40:17.832Z,16.45
2022-12-15T21:42:44.813Z,14.57
2022-12-15T21:45:23.023Z,14.80
2022-12-15T21:48:09.436Z,13.93
2022-12-15T21:50:38.097Z,13.88
2022-12-15T21:53:06.406Z,15.18
2022-12-15T21:55:33.150Z,15.27
2022-12-15T21:57:59.940Z,15.93
2022-12-15T22:00:26.717Z,15.40
2022-12-15T22:02:53.893Z,16.45
2022-12-15T22:05:29.501Z,14.43
2022-12-15T22:07:58.510Z,14.32
2022-12-15T22:10:25.451Z,14.90
2022-12-15T22:12:59.389Z,15.50
2022-12-15T22:15:28.892Z,14.25
2022-12-15T22:17:56.425Z,16.00
2022-12-15T22:20:24.616Z,15.98
2022-12-15T22:22:51.483Z,14.15
2022-12-15T22:25:19.536Z,14.95
2022-12-15T22:27:46.891Z,16.60
2022-12-15T22:30:18.650Z,17.60
2022-12-15T22:32:46.047Z,18.00
2022-12-15T22:35:24.218Z,16.27
2022-12-15T22:37:53.954Z,15.05
2022-12-15T22:40:23.629Z,15.50
2022-12-15T22:42:55.049Z,17.52
2022-12-15T22:45:24.212Z,15.77
2022-12-15T22:47:52.440Z,16.88
2022-12-15T22:50:25.126Z,15.27
2022-12-15T22:52:52.027Z,16.15
2022-12-15T22:56:18.731Z,16.10
2022-12-15T23:03:27.094Z,17.95
2022-12-15T23:06:53.500Z,18.40
2022-12-15T23:10:20.107Z,17.75
2022-12-15T23:13:46.568Z,19.75
2022-12-15T23:17:13.163Z,19.65
2022-12-15T23:20:39.579Z,16.73
2022-12-15T23:23:07.267Z,18.17
2022-12-15T23:25:33.951Z,16.92
2022-12-15T23:28:00.656Z,20.15
2022-12-15T23:30:27.689Z,16.60
2022-12-15T23:32:55.179Z,15.38
2022-12-15T23:35:22.226Z,16.88
2022-12-15T23:37:49.044Z,17.50
2022-12-15T23:40:21.367Z,15.82
2022-12-15T23:42:49.602Z,15.88
2022-12-15T23:45:17.793Z,15.85
2022-12-15T23:47:44.602Z,15.65
2022-12-15T23:50:11.459Z,14.77
2022-12-15T23:52:38.128Z,16.77
2022-12-15T23:55:05.125Z,15.77
2022-12-15T23:57:31.971Z,15.52
2022-12-15T23:59:58.709Z,15.48
